sensor_id;sensor_type;location;lat;lon;timestamp;P1;durP1;ratioP1;P2;durP2;ratioP2
44516;SDS011;30223;17.182;-96.766;2023-05-10T00:00:32;11.40;;;9.38;;
44516;SDS011;30223;17.182;-96.766;2023-05-10T00:02:58;10.35;;;8.10;;
44516;SDS011;30223;17.182;-96.766;2023-05-10T00:05:25;9.68;;;8.10;;
44516;SDS011;30223;17.182;-96.766;2023-05-10T00:07:52;9.27;;;7.88;;
44516;SDS011;30223;17.182;-96.766;2023-05-10T00:10:19;11.50;;;8.95;;
44516;SDS011;30223;17.182;-96.766;2023-05-10T00:12:45;11.57;;;8.68;;
44516;SDS011;30223;17.182;-96.766;2023-05-10T00:15:12;10.35;;;8.40;;
44516;SDS011;30223;17.182;-96.766;2023-05-10T00:17:39;12.13;;;9.20;;
44516;SDS011;30223;17.182;-96.766;2023-05-10T00:20:06;10.45;;;8.85;;
44516;SDS011;30223;17.182;-96.766;2023-05-10T00:22:33;13.95;;;10.00;;
44516;SDS011;30223;17.182;-96.766;2023-05-10T00:25:00;10.73;;;7.65;;
44516;SDS011;30223;17.182;-96.766;2023-05-10T00:27:27;11.70;;;8.25;;
44516;SDS011;30223;17.182;-96.766;2023-05-10T00:29:54;13.23;;;9.10;;
44516;SDS011;30223;17.182;-96.766;2023-05-10T00:32:20;13.85;;;8.82;;
44516;SDS011;30223;17.182;-96.766;2023-05-10T00:34:47;11.38;;;8.50;;
44516;SDS011;30223;17.182;-96.766;2023-05-10T00:37:14;12.57;;;9.60;;
44516;SDS011;30223;17.182;-96.766;2023-05-10T00:39:41;10.95;;;8.50;;
44516;SDS011;30223;17.182;-96.766;2023-05-10T00:42:07;14.13;;;9.82;;
44516;SDS011;30223;17.182;-96.766;2023-05-10T00:44:34;12.88;;;9.18;;
44516;SDS011;30223;17.182;-96.766;2023-05-10T00:47:01;10.95;;;8.27;;
44516;SDS011;30223;17.182;-96.766;2023-05-10T00:49:28;11.23;;;8.55;;
44516;SDS011;30223;17.182;-96.766;2023-05-10T00:51:55;11.13;;;8.25;;
44516;SDS011;30223;17.182;-96.766;2023-05-10T00:54:22;11.10;;;9.50;;
44516;SDS011;30223;17.182;-96.766;2023-05-10T00:56:49;11.50;;;9.30;;
44516;SDS011;30223;17.182;-96.766;2023-05-10T00:59:16;11.68;;;8.85;;
44516;SDS011;30223;17.182;-96.766;2023-05-10T01:01:47;13.32;;;9.35;;
44516;SDS011;30223;17.182;-96.766;2023-05-10T01:04:14;12.23;;;8.77;;
44516;SDS011;30223;17.182;-96.766;2023-05-10T01:06:41;12.88;;;10.55;;
44516;SDS011;30223;17.182;-96.766;2023-05-10T01:09:08;12.82;;;8.65;;
44516;SDS011;30223;17.182;-96.766;2023-05-10T01:11:37;11.70;;;9.00;;
44516;SDS011;30223;17.182;-96.766;2023-05-10T01:14:05;13.23;;;9.35;;
44516;SDS011;30223;17.182;-96.766;2023-05-10T01:16:34;11.23;;;8.35;;
44516;SDS011;30223;17.182;-96.766;2023-05-10T01:19:05;10.82;;;8.68;;
44516;SDS011;30223;17.182;-96.766;2023-05-10T01:25:06;11.75;;;8.38;;
44516;SDS011;30223;17.182;-96.766;2023-05-10T01:30:54;9.93;;;8.57;;
44516;SDS011;30223;17.182;-96.766;2023-05-10T01:36:43;9.07;;;7.85;;
44516;SDS011;30223;17.182;-96.766;2023-05-10T01:39:24;9.40;;;8.30;;
44516;SDS011;30223;17.182;-96.766;2023-05-10T01:42:13;14.88;;;9.15;;
44516;SDS011;30223;17.182;-96.766;2023-05-10T01:44:48;12.75;;;8.93;;
44516;SDS011;30223;17.182;-96.766;2023-05-10T01:47:34;9.82;;;7.80;;
44516;SDS011;30223;17.182;-96.766;2023-05-10T01:50:16;9.82;;;7.50;;
44516;SDS011;30223;17.182;-96.766;2023-05-10T01:52:50;12.32;;;8.13;;
44516;SDS011;30223;17.182;-96.766;2023-05-10T01:55:23;11.57;;;8.80;;
44516;SDS011;30223;17.182;-96.766;2023-05-10T01:57:58;11.85;;;8.07;;
44516;SDS011;30223;17.182;-96.766;2023-05-10T02:03:01;10.63;;;7.95;;
44516;SDS011;30223;17.182;-96.766;2023-05-10T02:05:32;11.32;;;8.02;;
44516;SDS011;30223;17.182;-96.766;2023-05-10T02:08:00;12.73;;;10.32;;
44516;SDS011;30223;17.182;-96.766;2023-05-10T02:10:28;10.25;;;7.95;;
44516;SDS011;30223;17.182;-96.766;2023-05-10T02:12:56;9.20;;;7.40;;
44516;SDS011;30223;17.182;-96.766;2023-05-10T02:15:25;12.18;;;8.85;;
44516;SDS011;30223;17.182;-96.766;2023-05-10T02:17:54;10.85;;;8.73;;
44516;SDS011;30223;17.182;-96.766;2023-05-10T02:20:22;12.60;;;8.88;;
44516;SDS011;30223;17.182;-96.766;2023-05-10T02:22:50;10.57;;;8.17;;
44516;SDS011;30223;17.182;-96.766;2023-05-10T02:25:19;11.40;;;9.60;;
44516;SDS011;30223;17.182;-96.766;2023-05-10T02:27:48;7.80;;;7.00;;
44516;SDS011;30223;17.182;-96.766;2023-05-10T02:30:15;13.07;;;9.32;;
44516;SDS011;30223;17.182;-96.766;2023-05-10T02:32:43;10.02;;;7.03;;
44516;SDS011;30223;17.182;-96.766;2023-05-10T02:35:11;9.95;;;8.75;;
44516;SDS011;30223;17.182;-96.766;2023-05-10T02:37:38;10.05;;;7.50;;
44516;SDS011;30223;17.182;-96.766;2023-05-10T02:40:07;10.07;;;7.87;;
44516;SDS011;30223;17.182;-96.766;2023-05-10T02:42:35;10.75;;;7.45;;
44516;SDS011;30223;17.182;-96.766;2023-05-10T02:45:05;10.05;;;7.80;;
44516;SDS011;30223;17.182;-96.766;2023-05-10T02:47:37;9.65;;;7.90;;
44516;SDS011;30223;17.182;-96.766;2023-05-10T02:50:04;10.65;;;8.23;;
44516;SDS011;30223;17.182;-96.766;2023-05-10T02:52:46;8.95;;;8.02;;
44516;SDS011;30223;17.182;-96.766;2023-05-10T02:55:17;9.93;;;7.82;;
44516;SDS011;30223;17.182;-96.766;2023-05-10T02:57:51;10.93;;;8.18;;
44516;SDS011;30223;17.182;-96.766;2023-05-10T03:00:22;10.73;;;8.15;;
44516;SDS011;30223;17.182;-96.766;2023-05-10T03:02:50;13.27;;;8.93;;
44516;SDS011;30223;17.182;-96.766;2023-05-10T03:05:17;10.20;;;8.68;;
44516;SDS011;30223;17.182;-96.766;2023-05-10T03:07:45;10.05;;;8.43;;
44516;SDS011;30223;17.182;-96.766;2023-05-10T03:10:12;9.40;;;6.60;;
44516;SDS011;30223;17.182;-96.766;2023-05-10T03:18:14;9.50;;;7.28;;
44516;SDS011;30223;17.182;-96.766;2023-05-10T03:20:50;11.10;;;7.55;;
44516;SDS011;30223;17.182;-96.766;2023-05-10T03:23:41;9.40;;;7.35;;
44516;SDS011;30223;17.182;-96.766;2023-05-10T03:26:20;9.30;;;8.02;;
44516;SDS011;30223;17.182;-96.766;2023-05-10T03:28:52;10.38;;;7.32;;
44516;SDS011;30223;17.182;-96.766;2023-05-10T03:31:20;8.45;;;7.47;;
44516;SDS011;30223;17.182;-96.766;2023-05-10T03:33:50;9.10;;;7.28;;
44516;SDS011;30223;17.182;-96.766;2023-05-10T03:36:18;9.40;;;6.88;;
44516;SDS011;30223;17.182;-96.766;2023-05-10T03:38:45;8.43;;;6.80;;
44516;SDS011;30223;17.182;-96.766;2023-05-10T03:41:12;10.52;;;7.78;;
44516;SDS011;30223;17.182;-96.766;2023-05-10T03:43:41;12.05;;;7.40;;
44516;SDS011;30223;17.182;-96.766;2023-05-10T03:46:08;9.25;;;7.45;;
44516;SDS011;30223;17.182;-96.766;2023-05-10T03:48:35;9.02;;;6.97;;
44516;SDS011;30223;17.182;-96.766;2023-05-10T03:51:01;10.45;;;7.10;;
44516;SDS011;30223;17.182;-96.766;2023-05-10T03:53:28;9.75;;;7.13;;
44516;SDS011;30223;17.182;-96.766;2023-05-10T03:55:55;9.60;;;7.20;;
44516;SDS011;30223;17.182;-96.766;2023-05-10T03:58:22;8.65;;;7.13;;
44516;SDS011;30223;17.182;-96.766;2023-05-10T04:00:48;9.05;;;7.45;;
44516;SDS011;30223;17.182;-96.766;2023-05-10T04:03:16;10.02;;;7.90;;
44516;SDS011;30223;17.182;-96.766;2023-05-10T04:05:43;9.45;;;7.40;;
44516;SDS011;30223;17.182;-96.766;2023-05-10T04:08:10;9.30;;;7.55;;
44516;SDS011;30223;17.182;-96.766;2023-05-10T04:10:37;10.13;;;7.18;;
44516;SDS011;30223;17.182;-96.766;2023-05-10T04:13:03;7.88;;;6.68;;
44516;SDS011;30223;17.182;-96.766;2023-05-10T04:15:31;9.00;;;7.03;;
44516;SDS011;30223;17.182;-96.766;2023-05-10T04:17:57;10.35;;;7.38;;
44516;SDS011;30223;17.182;-96.766;2023-05-10T04:20:24;9.65;;;8.00;;
44516;SDS011;30223;17.182;-96.766;2023-05-10T04:22:54;8.93;;;7.03;;
44516;SDS011;30223;17.182;-96.766;2023-05-10T04:25:20;8.55;;;6.65;;
44516;SDS011;30223;17.182;-96.766;2023-05-10T04:27:47;9.77;;;7.95;;
44516;SDS011;30223;17.182;-96.766;2023-05-10T04:30:14;9.52;;;8.02;;
44516;SDS011;30223;17.182;-96.766;2023-05-10T04:32:41;10.13;;;7.55;;
44516;SDS011;30223;17.182;-96.766;2023-05-10T04:35:07;7.75;;;6.85;;
44516;SDS011;30223;17.182;-96.766;2023-05-10T04:37:36;8.38;;;6.82;;
44516;SDS011;30223;17.182;-96.766;2023-05-10T04:40:02;9.35;;;6.60;;
44516;SDS011;30223;17.182;-96.766;2023-05-10T04:42:32;8.38;;;6.63;;
44516;SDS011;30223;17.182;-96.766;2023-05-10T04:44:59;9.98;;;6.93;;
44516;SDS011;30223;17.182;-96.766;2023-05-10T04:47:25;7.45;;;6.35;;
44516;SDS011;30223;17.182;-96.766;2023-05-10T04:49:55;8.30;;;6.90;;
44516;SDS011;30223;17.182;-96.766;2023-05-10T04:52:21;9.93;;;6.85;;
44516;SDS011;30223;17.182;-96.766;2023-05-10T04:54:48;9.05;;;6.80;;
44516;SDS011;30223;17.182;-96.766;2023-05-10T04:57:16;8.77;;;6.35;;
44516;SDS011;30223;17.182;-96.766;2023-05-10T04:59:42;8.88;;;6.75;;
44516;SDS011;30223;17.182;-96.766;2023-05-10T05:02:09;8.13;;;5.97;;
44516;SDS011;30223;17.182;-96.766;2023-05-10T05:04:36;7.50;;;6.57;;
44516;SDS011;30223;17.182;-96.766;2023-05-10T05:07:03;7.50;;;6.43;;
44516;SDS011;30223;17.182;-96.766;2023-05-10T05:09:30;8.27;;;6.85;;
44516;SDS011;30223;17.182;-96.766;2023-05-10T05:11:57;8.68;;;6.35;;
44516;SDS011;30223;17.182;-96.766;2023-05-10T05:14:24;8.70;;;6.10;;
44516;SDS011;30223;17.182;-96.766;2023-05-10T05:16:51;8.07;;;5.97;;
44516;SDS011;30223;17.182;-96.766;2023-05-10T05:19:18;9.40;;;7.03;;
44516;SDS011;30223;17.182;-96.766;2023-05-10T05:21:46;8.07;;;5.82;;
44516;SDS011;30223;17.182;-96.766;2023-05-10T05:24:12;6.38;;;5.53;;
44516;SDS011;30223;17.182;-96.766;2023-05-10T05:26:39;9.27;;;7.32;;
44516;SDS011;30223;17.182;-96.766;2023-05-10T05:29:06;8.38;;;7.47;;
44516;SDS011;30223;17.182;-96.766;2023-05-10T05:31:33;8.15;;;6.40;;
44516;SDS011;30223;17.182;-96.766;2023-05-10T05:34:00;7.97;;;6.45;;
44516;SDS011;30223;17.182;-96.766;2023-05-10T05:36:27;10.13;;;6.65;;
44516;SDS011;30223;17.182;-96.766;2023-05-10T05:38:53;6.50;;;5.78;;
44516;SDS011;30223;17.182;-96.766;2023-05-10T05:41:20;9.05;;;7.18;;
44516;SDS011;30223;17.182;-96.766;2023-05-10T05:43:47;8.23;;;6.68;;
44516;SDS011;30223;17.182;-96.766;2023-05-10T05:46:14;6.50;;;5.82;;
44516;SDS011;30223;17.182;-96.766;2023-05-10T05:48:41;7.65;;;6.55;;
44516;SDS011;30223;17.182;-96.766;2023-05-10T05:51:07;7.93;;;5.22;;
44516;SDS011;30223;17.182;-96.766;2023-05-10T05:53:34;8.50;;;7.18;;
44516;SDS011;30223;17.182;-96.766;2023-05-10T05:56:01;9.02;;;6.47;;
44516;SDS011;30223;17.182;-96.766;2023-05-10T05:58:28;8.70;;;6.70;;
44516;SDS011;30223;17.182;-96.766;2023-05-10T06:00:55;6.78;;;5.47;;
44516;SDS011;30223;17.182;-96.766;2023-05-10T06:03:22;7.45;;;6.00;;
44516;SDS011;30223;17.182;-96.766;2023-05-10T06:05:49;9.05;;;6.38;;
44516;SDS011;30223;17.182;-96.766;2023-05-10T06:08:16;8.50;;;6.15;;
44516;SDS011;30223;17.182;-96.766;2023-05-10T06:10:42;7.35;;;5.53;;
44516;SDS011;30223;17.182;-96.766;2023-05-10T06:13:09;8.45;;;6.25;;
44516;SDS011;30223;17.182;-96.766;2023-05-10T06:15:36;8.65;;;5.93;;
44516;SDS011;30223;17.182;-96.766;2023-05-10T06:18:03;8.05;;;6.00;;
44516;SDS011;30223;17.182;-96.766;2023-05-10T06:20:31;6.47;;;5.82;;
44516;SDS011;30223;17.182;-96.766;2023-05-10T06:22:58;8.60;;;6.15;;
44516;SDS011;30223;17.182;-96.766;2023-05-10T06:25:24;6.57;;;5.65;;
44516;SDS011;30223;17.182;-96.766;2023-05-10T06:27:51;6.45;;;5.70;;
44516;SDS011;30223;17.182;-96.766;2023-05-10T06:30:22;8.20;;;6.22;;
44516;SDS011;30223;17.182;-96.766;2023-05-10T06:32:52;9.48;;;6.85;;
44516;SDS011;30223;17.182;-96.766;2023-05-10T06:35:19;7.72;;;6.20;;
44516;SDS011;30223;17.182;-96.766;2023-05-10T06:37:46;7.95;;;6.03;;
44516;SDS011;30223;17.182;-96.766;2023-05-10T06:40:13;6.95;;;5.32;;
44516;SDS011;30223;17.182;-96.766;2023-05-10T06:42:40;7.93;;;6.45;;
44516;SDS011;30223;17.182;-96.766;2023-05-10T06:45:07;7.95;;;6.63;;
44516;SDS011;30223;17.182;-96.766;2023-05-10T06:47:34;7.45;;;5.57;;
44516;SDS011;30223;17.182;-96.766;2023-05-10T06:50:01;5.72;;;4.55;;
44516;SDS011;30223;17.182;-96.766;2023-05-10T06:52:28;9.13;;;5.80;;
44516;SDS011;30223;17.182;-96.766;2023-05-10T06:54:55;8.35;;;5.65;;
44516;SDS011;30223;17.182;-96.766;2023-05-10T06:57:23;7.32;;;5.72;;
44516;SDS011;30223;17.182;-96.766;2023-05-10T06:59:50;8.13;;;6.18;;
44516;SDS011;30223;17.182;-96.766;2023-05-10T07:02:17;8.73;;;6.55;;
44516;SDS011;30223;17.182;-96.766;2023-05-10T07:04:44;6.63;;;5.25;;
44516;SDS011;30223;17.182;-96.766;2023-05-10T07:07:13;8.82;;;6.53;;
44516;SDS011;30223;17.182;-96.766;2023-05-10T07:09:40;6.80;;;5.72;;
44516;SDS011;30223;17.182;-96.766;2023-05-10T07:12:07;7.45;;;5.45;;
44516;SDS011;30223;17.182;-96.766;2023-05-10T07:14:34;7.75;;;6.50;;
44516;SDS011;30223;17.182;-96.766;2023-05-10T07:17:00;9.43;;;6.95;;
44516;SDS011;30223;17.182;-96.766;2023-05-10T07:19:27;8.05;;;6.18;;
44516;SDS011;30223;17.182;-96.766;2023-05-10T07:21:54;9.05;;;5.50;;
44516;SDS011;30223;17.182;-96.766;2023-05-10T07:24:23;6.75;;;5.90;;
44516;SDS011;30223;17.182;-96.766;2023-05-10T07:29:17;7.03;;;5.70;;
44516;SDS011;30223;17.182;-96.766;2023-05-10T07:31:43;7.72;;;5.57;;
44516;SDS011;30223;17.182;-96.766;2023-05-10T07:34:10;7.13;;;5.47;;
44516;SDS011;30223;17.182;-96.766;2023-05-10T07:36:37;8.35;;;5.25;;
44516;SDS011;30223;17.182;-96.766;2023-05-10T07:39:03;7.32;;;5.72;;
44516;SDS011;30223;17.182;-96.766;2023-05-10T07:41:30;7.10;;;5.60;;
44516;SDS011;30223;17.182;-96.766;2023-05-10T07:43:57;7.50;;;5.93;;
44516;SDS011;30223;17.182;-96.766;2023-05-10T07:46:24;6.70;;;5.63;;
44516;SDS011;30223;17.182;-96.766;2023-05-10T07:48:51;6.90;;;5.32;;
44516;SDS011;30223;17.182;-96.766;2023-05-10T07:51:17;5.72;;;5.07;;
44516;SDS011;30223;17.182;-96.766;2023-05-10T07:53:44;9.32;;;7.15;;
44516;SDS011;30223;17.182;-96.766;2023-05-10T07:58:55;8.45;;;6.03;;
44516;SDS011;30223;17.182;-96.766;2023-05-10T08:01:22;8.63;;;5.90;;
44516;SDS011;30223;17.182;-96.766;2023-05-10T08:03:49;7.53;;;5.10;;
44516;SDS011;30223;17.182;-96.766;2023-05-10T08:06:19;8.88;;;5.90;;
44516;SDS011;30223;17.182;-96.766;2023-05-10T08:08:47;7.15;;;5.20;;
44516;SDS011;30223;17.182;-96.766;2023-05-10T08:11:19;6.53;;;4.68;;
44516;SDS011;30223;17.182;-96.766;2023-05-10T08:13:46;6.75;;;5.43;;
44516;SDS011;30223;17.182;-96.766;2023-05-10T08:16:14;6.60;;;5.47;;
44516;SDS011;30223;17.182;-96.766;2023-05-10T08:18:42;8.43;;;5.28;;
44516;SDS011;30223;17.182;-96.766;2023-05-10T08:21:10;6.07;;;5.22;;
44516;SDS011;30223;17.182;-96.766;2023-05-10T08:23:37;7.82;;;5.97;;
44516;SDS011;30223;17.182;-96.766;2023-05-10T08:26:04;7.88;;;5.32;;
44516;SDS011;30223;17.182;-96.766;2023-05-10T08:28:31;6.40;;;5.20;;
44516;SDS011;30223;17.182;-96.766;2023-05-10T08:30:57;7.32;;;6.03;;
44516;SDS011;30223;17.182;-96.766;2023-05-10T08:33:24;5.70;;;4.20;;
44516;SDS011;30223;17.182;-96.766;2023-05-10T08:35:51;8.00;;;5.78;;
44516;SDS011;30223;17.182;-96.766;2023-05-10T08:38:18;6.78;;;5.38;;
44516;SDS011;30223;17.182;-96.766;2023-05-10T08:40:45;8.13;;;6.32;;
44516;SDS011;30223;17.182;-96.766;2023-05-10T08:43:13;5.68;;;5.15;;
44516;SDS011;30223;17.182;-96.766;2023-05-10T08:45:43;6.15;;;5.30;;
44516;SDS011;30223;17.182;-96.766;2023-05-10T08:48:12;7.78;;;5.70;;
44516;SDS011;30223;17.182;-96.766;2023-05-10T08:50:40;7.32;;;5.97;;
44516;SDS011;30223;17.182;-96.766;2023-05-10T08:53:12;6.43;;;5.65;;
44516;SDS011;30223;17.182;-96.766;2023-05-10T08:55:40;6.63;;;4.97;;
44516;SDS011;30223;17.182;-96.766;2023-05-10T08:58:08;8.00;;;5.43;;
44516;SDS011;30223;17.182;-96.766;2023-05-10T09:00:35;7.75;;;6.60;;
44516;SDS011;30223;17.182;-96.766;2023-05-10T09:03:03;6.63;;;5.30;;
44516;SDS011;30223;17.182;-96.766;2023-05-10T09:05:31;7.13;;;5.82;;
44516;SDS011;30223;17.182;-96.766;2023-05-10T09:07:58;7.07;;;4.60;;
44516;SDS011;30223;17.182;-96.766;2023-05-10T09:10:27;7.57;;;5.55;;
44516;SDS011;30223;17.182;-96.766;2023-05-10T09:12:56;8.10;;;6.20;;
44516;SDS011;30223;17.182;-96.766;2023-05-10T09:15:23;7.25;;;5.47;;
44516;SDS011;30223;17.182;-96.766;2023-05-10T09:17:50;7.68;;;5.53;;
44516;SDS011;30223;17.182;-96.766;2023-05-10T09:20:17;6.72;;;4.75;;
44516;SDS011;30223;17.182;-96.766;2023-05-10T09:22:48;7.00;;;5.45;;
44516;SDS011;30223;17.182;-96.766;2023-05-10T09:25:15;6.45;;;5.03;;
44516;SDS011;30223;17.182;-96.766;2023-05-10T09:27:46;7.55;;;5.22;;
44516;SDS011;30223;17.182;-96.766;2023-05-10T09:30:31;8.40;;;5.40;;
44516;SDS011;30223;17.182;-96.766;2023-05-10T09:32:58;7.07;;;5.15;;
44516;SDS011;30223;17.182;-96.766;2023-05-10T09:35:26;5.75;;;4.93;;
44516;SDS011;30223;17.182;-96.766;2023-05-10T09:37:55;6.90;;;5.13;;
44516;SDS011;30223;17.182;-96.766;2023-05-10T09:40:24;6.47;;;5.07;;
44516;SDS011;30223;17.182;-96.766;2023-05-10T09:42:58;7.70;;;6.07;;
44516;SDS011;30223;17.182;-96.766;2023-05-10T09:45:32;7.47;;;6.05;;
44516;SDS011;30223;17.182;-96.766;2023-05-10T09:48:02;5.67;;;5.07;;
44516;SDS011;30223;17.182;-96.766;2023-05-10T09:50:29;7.57;;;5.82;;
44516;SDS011;30223;17.182;-96.766;2023-05-10T09:52:57;6.55;;;4.88;;
44516;SDS011;30223;17.182;-96.766;2023-05-10T09:55:26;7.70;;;5.60;;
44516;SDS011;30223;17.182;-96.766;2023-05-10T09:58:05;5.40;;;4.90;;
44516;SDS011;30223;17.182;-96.766;2023-05-10T10:00:36;7.75;;;5.03;;
44516;SDS011;30223;17.182;-96.766;2023-05-10T10:03:04;6.75;;;5.10;;
44516;SDS011;30223;17.182;-96.766;2023-05-10T10:05:32;6.28;;;5.20;;
44516;SDS011;30223;17.182;-96.766;2023-05-10T10:08:02;5.68;;;4.75;;
44516;SDS011;30223;17.182;-96.766;2023-05-10T10:10:32;5.80;;;4.47;;
44516;SDS011;30223;17.182;-96.766;2023-05-10T10:12:59;7.32;;;5.15;;
44516;SDS011;30223;17.182;-96.766;2023-05-10T10:15:30;7.57;;;6.00;;
44516;SDS011;30223;17.182;-96.766;2023-05-10T10:17:58;6.00;;;4.82;;
44516;SDS011;30223;17.182;-96.766;2023-05-10T10:20:25;6.82;;;5.00;;
44516;SDS011;30223;17.182;-96.766;2023-05-10T10:22:53;6.95;;;5.85;;
44516;SDS011;30223;17.182;-96.766;2023-05-10T10:25:20;7.15;;;5.25;;
44516;SDS011;30223;17.182;-96.766;2023-05-10T10:35:55;5.13;;;4.47;;
44516;SDS011;30223;17.182;-96.766;2023-05-10T10:38:25;6.82;;;5.32;;
44516;SDS011;30223;17.182;-96.766;2023-05-10T10:41:22;7.28;;;4.82;;
44516;SDS011;30223;17.182;-96.766;2023-05-10T10:49:48;6.15;;;4.55;;
44516;SDS011;30223;17.182;-96.766;2023-05-10T10:52:36;8.63;;;5.90;;
44516;SDS011;30223;17.182;-96.766;2023-05-10T11:00:24;6.85;;;5.38;;
44516;SDS011;30223;17.182;-96.766;2023-05-10T11:03:12;6.05;;;4.65;;
44516;SDS011;30223;17.182;-96.766;2023-05-10T11:05:44;6.53;;;5.30;;
44516;SDS011;30223;17.182;-96.766;2023-05-10T11:08:18;6.00;;;5.15;;
44516;SDS011;30223;17.182;-96.766;2023-05-10T11:10:52;6.90;;;5.13;;
44516;SDS011;30223;17.182;-96.766;2023-05-10T11:13:33;5.55;;;4.70;;
44516;SDS011;30223;17.182;-96.766;2023-05-10T11:16:13;5.90;;;4.65;;
44516;SDS011;30223;17.182;-96.766;2023-05-10T11:19:19;6.60;;;5.10;;
44516;SDS011;30223;17.182;-96.766;2023-05-10T11:24:13;7.72;;;5.00;;
44516;SDS011;30223;17.182;-96.766;2023-05-10T11:26:42;6.43;;;5.28;;
44516;SDS011;30223;17.182;-96.766;2023-05-10T11:29:09;6.82;;;5.00;;
44516;SDS011;30223;17.182;-96.766;2023-05-10T11:31:47;6.80;;;5.35;;
44516;SDS011;30223;17.182;-96.766;2023-05-10T11:34:30;6.22;;;4.30;;
44516;SDS011;30223;17.182;-96.766;2023-05-10T11:37:00;6.32;;;4.25;;
44516;SDS011;30223;17.182;-96.766;2023-05-10T11:39:27;5.25;;;4.65;;
44516;SDS011;30223;17.182;-96.766;2023-05-10T11:41:55;7.90;;;5.68;;
44516;SDS011;30223;17.182;-96.766;2023-05-10T11:44:22;5.32;;;4.75;;
44516;SDS011;30223;17.182;-96.766;2023-05-10T11:46:54;5.78;;;5.10;;
44516;SDS011;30223;17.182;-96.766;2023-05-10T11:49:27;5.20;;;4.65;;
44516;SDS011;30223;17.182;-96.766;2023-05-10T11:52:03;5.38;;;4.47;;
44516;SDS011;30223;17.182;-96.766;2023-05-10T11:54:33;7.22;;;4.68;;
44516;SDS011;30223;17.182;-96.766;2023-05-10T11:57:03;7.05;;;4.68;;
44516;SDS011;30223;17.182;-96.766;2023-05-10T11:59:30;6.68;;;4.68;;
44516;SDS011;30223;17.182;-96.766;2023-05-10T12:01:57;6.63;;;3.80;;
44516;SDS011;30223;17.182;-96.766;2023-05-10T12:04:24;5.97;;;4.30;;
44516;SDS011;30223;17.182;-96.766;2023-05-10T12:07:00;8.27;;;4.80;;
44516;SDS011;30223;17.182;-96.766;2023-05-10T12:09:27;5.53;;;4.55;;
44516;SDS011;30223;17.182;-96.766;2023-05-10T12:11:55;6.03;;;5.00;;
44516;SDS011;30223;17.182;-96.766;2023-05-10T12:14:22;7.28;;;5.25;;
44516;SDS011;30223;17.182;-96.766;2023-05-10T12:16:49;6.22;;;5.53;;
44516;SDS011;30223;17.182;-96.766;2023-05-10T12:19:19;5.57;;;4.18;;
44516;SDS011;30223;17.182;-96.766;2023-05-10T12:21:46;6.28;;;4.85;;
44516;SDS011;30223;17.182;-96.766;2023-05-10T12:24:13;6.45;;;5.05;;
44516;SDS011;30223;17.182;-96.766;2023-05-10T12:26:43;7.82;;;4.53;;
44516;SDS011;30223;17.182;-96.766;2023-05-10T12:29:15;5.13;;;4.60;;
44516;SDS011;30223;17.182;-96.766;2023-05-10T12:31:50;6.35;;;4.40;;
44516;SDS011;30223;17.182;-96.766;2023-05-10T12:34:30;7.25;;;4.65;;
44516;SDS011;30223;17.182;-96.766;2023-05-10T12:37:02;5.68;;;4.68;;
44516;SDS011;30223;17.182;-96.766;2023-05-10T12:39:41;5.43;;;4.50;;
44516;SDS011;30223;17.182;-96.766;2023-05-10T12:42:09;5.45;;;4.47;;
44516;SDS011;30223;17.182;-96.766;2023-05-10T12:44:37;8.65;;;5.32;;
44516;SDS011;30223;17.182;-96.766;2023-05-10T12:47:04;6.80;;;4.72;;
44516;SDS011;30223;17.182;-96.766;2023-05-10T12:49:31;4.93;;;4.00;;
44516;SDS011;30223;17.182;-96.766;2023-05-10T12:51:58;5.70;;;4.45;;
44516;SDS011;30223;17.182;-96.766;2023-05-10T12:54:24;7.05;;;4.65;;
44516;SDS011;30223;17.182;-96.766;2023-05-10T12:56:51;5.88;;;4.55;;
44516;SDS011;30223;17.182;-96.766;2023-05-10T12:59:18;6.07;;;4.47;;
44516;SDS011;30223;17.182;-96.766;2023-05-10T13:01:44;6.20;;;4.57;;
44516;SDS011;30223;17.182;-96.766;2023-05-10T13:04:11;5.68;;;4.18;;
44516;SDS011;30223;17.182;-96.766;2023-05-10T13:06:38;5.88;;;4.60;;
44516;SDS011;30223;17.182;-96.766;2023-05-10T13:09:05;5.72;;;4.13;;
44516;SDS011;30223;17.182;-96.766;2023-05-10T13:11:32;5.97;;;4.35;;
44516;SDS011;30223;17.182;-96.766;2023-05-10T13:13:59;5.18;;;4.40;;
44516;SDS011;30223;17.182;-96.766;2023-05-10T13:16:25;6.25;;;4.00;;
44516;SDS011;30223;17.182;-96.766;2023-05-10T13:18:52;6.93;;;5.43;;
44516;SDS011;30223;17.182;-96.766;2023-05-10T13:21:19;6.18;;;4.75;;
44516;SDS011;30223;17.182;-96.766;2023-05-10T13:23:45;5.95;;;4.50;;
44516;SDS011;30223;17.182;-96.766;2023-05-10T13:26:12;6.15;;;5.53;;
44516;SDS011;30223;17.182;-96.766;2023-05-10T13:28:39;4.63;;;3.90;;
44516;SDS011;30223;17.182;-96.766;2023-05-10T13:31:06;6.63;;;4.55;;
44516;SDS011;30223;17.182;-96.766;2023-05-10T13:33:33;6.13;;;4.43;;
44516;SDS011;30223;17.182;-96.766;2023-05-10T13:36:00;4.72;;;4.07;;
44516;SDS011;30223;17.182;-96.766;2023-05-10T13:38:26;5.65;;;4.82;;
44516;SDS011;30223;17.182;-96.766;2023-05-10T13:40:53;5.28;;;3.70;;
44516;SDS011;30223;17.182;-96.766;2023-05-10T13:43:20;6.07;;;4.40;;
44516;SDS011;30223;17.182;-96.766;2023-05-10T13:45:47;5.97;;;4.85;;
44516;SDS011;30223;17.182;-96.766;2023-05-10T13:48:14;5.50;;;3.97;;
44516;SDS011;30223;17.182;-96.766;2023-05-10T13:50:40;5.82;;;4.35;;
44516;SDS011;30223;17.182;-96.766;2023-05-10T13:53:07;5.68;;;4.40;;
44516;SDS011;30223;17.182;-96.766;2023-05-10T13:55:34;5.95;;;4.35;;
44516;SDS011;30223;17.182;-96.766;2023-05-10T13:58:01;4.85;;;4.10;;
44516;SDS011;30223;17.182;-96.766;2023-05-10T14:00:27;3.67;;;3.10;;
44516;SDS011;30223;17.182;-96.766;2023-05-10T14:02:54;5.65;;;4.43;;
44516;SDS011;30223;17.182;-96.766;2023-05-10T14:05:21;4.75;;;3.72;;
44516;SDS011;30223;17.182;-96.766;2023-05-10T14:07:49;5.55;;;4.93;;
44516;SDS011;30223;17.182;-96.766;2023-05-10T14:10:16;5.68;;;4.63;;
44516;SDS011;30223;17.182;-96.766;2023-05-10T14:12:42;4.38;;;3.25;;
44516;SDS011;30223;17.182;-96.766;2023-05-10T14:15:09;4.63;;;3.95;;
44516;SDS011;30223;17.182;-96.766;2023-05-10T14:17:37;4.78;;;3.83;;
44516;SDS011;30223;17.182;-96.766;2023-05-10T14:20:03;5.72;;;4.15;;
44516;SDS011;30223;17.182;-96.766;2023-05-10T14:22:31;6.53;;;4.03;;
44516;SDS011;30223;17.182;-96.766;2023-05-10T14:25:00;5.80;;;3.63;;
44516;SDS011;30223;17.182;-96.766;2023-05-10T14:27:27;5.40;;;3.70;;
44516;SDS011;30223;17.182;-96.766;2023-05-10T14:29:54;4.95;;;3.97;;
44516;SDS011;30223;17.182;-96.766;2023-05-10T14:32:23;4.65;;;3.75;;
44516;SDS011;30223;17.182;-96.766;2023-05-10T14:34:50;5.25;;;3.97;;
44516;SDS011;30223;17.182;-96.766;2023-05-10T14:37:16;4.70;;;3.63;;
44516;SDS011;30223;17.182;-96.766;2023-05-10T14:39:43;4.82;;;3.63;;
44516;SDS011;30223;17.182;-96.766;2023-05-10T14:42:11;6.05;;;4.45;;
44516;SDS011;30223;17.182;-96.766;2023-05-10T14:44:38;6.20;;;4.47;;
44516;SDS011;30223;17.182;-96.766;2023-05-10T14:47:05;5.47;;;4.35;;
44516;SDS011;30223;17.182;-96.766;2023-05-10T14:49:31;5.35;;;4.25;;
44516;SDS011;30223;17.182;-96.766;2023-05-10T14:51:58;5.40;;;4.05;;
44516;SDS011;30223;17.182;-96.766;2023-05-10T14:54:25;5.63;;;4.50;;
44516;SDS011;30223;17.182;-96.766;2023-05-10T14:56:53;3.95;;;3.33;;
44516;SDS011;30223;17.182;-96.766;2023-05-10T14:59:20;5.32;;;4.55;;
44516;SDS011;30223;17.182;-96.766;2023-05-10T15:01:47;4.90;;;3.88;;
44516;SDS011;30223;17.182;-96.766;2023-05-10T15:04:13;5.00;;;3.50;;
44516;SDS011;30223;17.182;-96.766;2023-05-10T15:06:41;4.38;;;3.92;;
44516;SDS011;30223;17.182;-96.766;2023-05-10T15:09:08;4.35;;;3.88;;
44516;SDS011;30223;17.182;-96.766;2023-05-10T15:11:35;5.10;;;3.97;;